sensor_id;sensor_type;location;lat;lon;timestamp;pressure;altitude;pressure_sealevel;temperature;humidity
74680;BME280;63211;48.548;2.704;2023-11-19T00:00:41;100824.28;;;19.02;54.67
74680;BME280;63211;48.548;2.704;2023-11-19T00:03:08;100824.28;;;19.02;54.64
74680;BME280;63211;48.548;2.704;2023-11-19T00:05:36;100838.16;;;19.00;54.75
74680;BME280;63211;48.548;2.704;2023-11-19T00:08:02;100820.94;;;19.00;54.78
74680;BME280;63211;48.548;2.704;2023-11-19T00:10:29;100808.81;;;18.96;55.06
74680;BME280;63211;48.548;2.704;2023-11-19T00:12:56;100801.56;;;18.90;54.76
74680;BME280;63211;48.548;2.704;2023-11-19T00:15:24;100776.75;;;18.73;54.86
74680;BME280;63211;48.548;2.704;2023-11-19T00:17:51;100828.13;;;18.94;55.00
74680;BME280;63211;48.548;2.704;2023-11-19T00:20:18;100817.09;;;18.89;54.83
74680;BME280;63211;48.548;2.704;2023-11-19T00:22:45;100821.84;;;18.94;54.82
74680;BME280;63211;48.548;2.704;2023-11-19T00:25:13;100817.44;;;18.93;54.89
74680;BME280;63211;48.548;2.704;2023-11-19T00:27:40;100808.44;;;18.92;55.00
74680;BME280;63211;48.548;2.704;2023-11-19T00:30:10;100813.31;;;18.90;55.04
74680;BME280;63211;48.548;2.704;2023-11-19T00:32:38;100798.22;;;18.87;55.02
74680;BME280;63211;48.548;2.704;2023-11-19T00:35:05;100778.97;;;18.82;55.01
74680;BME280;63211;48.548;2.704;2023-11-19T00:37:32;100801.41;;;18.84;55.04
74680;BME280;63211;48.548;2.704;2023-11-19T00:39:59;100797.38;;;18.87;55.22
74680;BME280;63211;48.548;2.704;2023-11-19T00:42:25;100811.25;;;18.85;55.18
74680;BME280;63211;48.548;2.704;2023-11-19T00:44:52;100803.50;;;18.82;54.61
74680;BME280;63211;48.548;2.704;2023-11-19T00:47:19;100812.91;;;18.86;55.04
74680;BME280;63211;48.548;2.704;2023-11-19T00:49:47;100814.97;;;18.91;55.14
74680;BME280;63211;48.548;2.704;2023-11-19T00:52:15;100770.94;;;18.69;54.69
74680;BME280;63211;48.548;2.704;2023-11-19T00:54:41;100812.84;;;19.11;54.54
74680;BME280;63211;48.548;2.704;2023-11-19T00:57:08;100790.56;;;18.96;54.17
74680;BME280;63211;48.548;2.704;2023-11-19T00:59:34;100809.19;;;19.17;54.18
74680;BME280;63211;48.548;2.704;2023-11-19T01:02:01;100810.88;;;19.18;54.23
74680;BME280;63211;48.548;2.704;2023-11-19T01:04:29;100815.25;;;19.19;54.74
74680;BME280;63211;48.548;2.704;2023-11-19T01:07:01;100824.91;;;19.22;54.45
74680;BME280;63211;48.548;2.704;2023-11-19T01:09:29;100824.44;;;19.25;53.86
74680;BME280;63211;48.548;2.704;2023-11-19T01:11:57;100826.34;;;19.25;54.46
74680;BME280;63211;48.548;2.704;2023-11-19T01:14:23;100820.03;;;19.24;54.35
74680;BME280;63211;48.548;2.704;2023-11-19T01:16:50;100823.00;;;19.22;54.57
74680;BME280;63211;48.548;2.704;2023-11-19T01:19:19;100827.00;;;19.20;54.59
74680;BME280;63211;48.548;2.704;2023-11-19T01:21:46;100821.19;;;19.16;55.45
74680;BME280;63211;48.548;2.704;2023-11-19T01:24:14;100816.41;;;19.12;55.67
74680;BME280;63211;48.548;2.704;2023-11-19T01:26:41;100813.69;;;19.12;55.69
74680;BME280;63211;48.548;2.704;2023-11-19T01:29:11;100823.78;;;19.11;55.93
74680;BME280;63211;48.548;2.704;2023-11-19T01:31:38;100818.53;;;19.10;55.44
74680;BME280;63211;48.548;2.704;2023-11-19T01:34:05;100811.88;;;19.06;55.74
74680;BME280;63211;48.548;2.704;2023-11-19T01:36:31;100813.53;;;19.07;55.56
74680;BME280;63211;48.548;2.704;2023-11-19T01:38:58;100817.31;;;19.06;55.74
74680;BME280;63211;48.548;2.704;2023-11-19T01:41:26;100816.50;;;19.05;55.63
74680;BME280;63211;48.548;2.704;2023-11-19T01:43:53;100816.50;;;19.05;55.41
74680;BME280;63211;48.548;2.704;2023-11-19T01:46:19;100814.81;;;19.04;55.67
74680;BME280;63211;48.548;2.704;2023-11-19T01:48:46;100810.03;;;19.00;55.38
74680;BME280;63211;48.548;2.704;2023-11-19T01:51:13;100818.00;;;19.01;55.51
74680;BME280;63211;48.548;2.704;2023-11-19T01:53:42;100808.38;;;18.99;55.80
74680;BME280;63211;48.548;2.704;2023-11-19T01:56:10;100807.16;;;18.95;55.56
74680;BME280;63211;48.548;2.704;2023-11-19T01:58:40;100813.00;;;18.98;55.41
74680;BME280;63211;48.548;2.704;2023-11-19T02:01:09;100809.66;;;18.96;55.35
74680;BME280;63211;48.548;2.704;2023-11-19T02:03:36;100813.22;;;18.97;55.85
74680;BME280;63211;48.548;2.704;2023-11-19T02:06:04;100821.41;;;18.97;55.58
74680;BME280;63211;48.548;2.704;2023-11-19T02:08:31;100810.72;;;18.95;55.58
74680;BME280;63211;48.548;2.704;2023-11-19T02:10:57;100801.09;;;18.93;55.77
74680;BME280;63211;48.548;2.704;2023-11-19T02:13:25;100799.41;;;18.92;55.46
74680;BME280;63211;48.548;2.704;2023-11-19T02:15:54;100809.13;;;18.87;55.68
74680;BME280;63211;48.548;2.704;2023-11-19T02:18:22;100779.03;;;18.76;55.74
74680;BME280;63211;48.548;2.704;2023-11-19T02:20:49;100798.84;;;18.90;55.80
74680;BME280;63211;48.548;2.704;2023-11-19T02:23:17;100797.16;;;18.88;55.79
74680;BME280;63211;48.548;2.704;2023-11-19T02:25:47;100794.66;;;18.87;55.51
74680;BME280;63211;48.548;2.704;2023-11-19T02:28:22;100800.94;;;18.87;55.48
74680;BME280;63211;48.548;2.704;2023-11-19T02:30:49;100794.22;;;18.90;55.37
74680;BME280;63211;48.548;2.704;2023-11-19T02:33:15;100798.91;;;19.01;56.08
74680;BME280;63211;48.548;2.704;2023-11-19T02:35:42;100800.41;;;19.15;56.60
74680;BME280;63211;48.548;2.704;2023-11-19T02:38:08;100802.44;;;19.20;56.85
74680;BME280;63211;48.548;2.704;2023-11-19T02:40:36;100802.84;;;19.23;57.04
74680;BME280;63211;48.548;2.704;2023-11-19T02:43:02;100799.03;;;19.25;57.53
74680;BME280;63211;48.548;2.704;2023-11-19T02:45:31;100781.44;;;19.20;56.49
74680;BME280;63211;48.548;2.704;2023-11-19T02:47:58;100788.72;;;19.27;56.15
74680;BME280;63211;48.548;2.704;2023-11-19T02:50:27;100787.44;;;19.29;55.99
74680;BME280;63211;48.548;2.704;2023-11-19T02:52:54;100775.31;;;19.25;56.33
74680;BME280;63211;48.548;2.704;2023-11-19T02:55:22;100785.09;;;19.33;56.09
74680;BME280;63211;48.548;2.704;2023-11-19T02:57:49;100781.28;;;19.34;55.85
74680;BME280;63211;48.548;2.704;2023-11-19T03:00:19;100776.75;;;19.28;56.12
74680;BME280;63211;48.548;2.704;2023-11-19T03:02:50;100796.25;;;19.31;56.31
74680;BME280;63211;48.548;2.704;2023-11-19T03:05:25;100786.00;;;19.27;55.87
74680;BME280;63211;48.548;2.704;2023-11-19T03:07:55;100796.91;;;19.27;56.21
74680;BME280;63211;48.548;2.704;2023-11-19T03:10:22;100793.59;;;19.25;56.44
74680;BME280;63211;48.548;2.704;2023-11-19T03:12:49;100801.16;;;19.22;56.09
74680;BME280;63211;48.548;2.704;2023-11-19T03:15:15;100803.06;;;19.22;56.40
74680;BME280;63211;48.548;2.704;2023-11-19T03:17:42;100802.44;;;19.20;55.94
74680;BME280;63211;48.548;2.704;2023-11-19T03:20:11;100785.56;;;19.11;56.20
74680;BME280;63211;48.548;2.704;2023-11-19T03:22:41;100784.72;;;19.11;56.23
74680;BME280;63211;48.548;2.704;2023-11-19T03:25:08;100778.91;;;19.07;56.08
74680;BME280;63211;48.548;2.704;2023-11-19T03:27:34;100768.28;;;18.99;55.99
74680;BME280;63211;48.548;2.704;2023-11-19T03:30:02;100779.28;;;19.11;55.77
74680;BME280;63211;48.548;2.704;2023-11-19T03:32:30;100778.22;;;19.12;56.02
74680;BME280;63211;48.548;2.704;2023-11-19T03:34:56;100777.59;;;19.10;56.23
74680;BME280;63211;48.548;2.704;2023-11-19T03:37:25;100769.41;;;19.10;55.92
74680;BME280;63211;48.548;2.704;2023-11-19T03:39:51;100755.16;;;19.08;56.00
74680;BME280;63211;48.548;2.704;2023-11-19T03:42:19;100761.47;;;19.08;56.18
74680;BME280;63211;48.548;2.704;2023-11-19T03:44:45;100765.25;;;19.07;55.92
74680;BME280;63211;48.548;2.704;2023-11-19T03:47:12;100764.88;;;19.04;55.92
74680;BME280;63211;48.548;2.704;2023-11-19T03:49:38;100758.34;;;19.05;55.85
74680;BME280;63211;48.548;2.704;2023-11-19T03:52:05;100763.44;;;19.01;55.76
74680;BME280;63211;48.548;2.704;2023-11-19T03:54:33;100759.88;;;19.01;56.08
74680;BME280;63211;48.548;2.704;2023-11-19T03:56:59;100756.97;;;18.96;56.11
74680;BME280;63211;48.548;2.704;2023-11-19T03:59:28;100758.19;;;19.00;56.16
74680;BME280;63211;48.548;2.704;2023-11-19T04:01:55;100766.00;;;18.96;55.87
74680;BME280;63211;48.548;2.704;2023-11-19T04:04:22;100762.22;;;18.97;56.09
74680;BME280;63211;48.548;2.704;2023-11-19T04:06:48;100754.47;;;18.94;56.15
74680;BME280;63211;48.548;2.704;2023-11-19T04:09:15;100759.94;;;18.94;56.19
74680;BME280;63211;48.548;2.704;2023-11-19T04:11:42;100762.66;;;18.94;55.89
74680;BME280;63211;48.548;2.704;2023-11-19T04:14:12;100753.28;;;18.90;55.92
74680;BME280;63211;48.548;2.704;2023-11-19T04:16:38;100771.22;;;18.98;55.86
74680;BME280;63211;48.548;2.704;2023-11-19T04:19:05;100758.66;;;18.97;56.02
74680;BME280;63211;48.548;2.704;2023-11-19T04:21:32;100770.03;;;19.12;55.55
74680;BME280;63211;48.548;2.704;2023-11-19T04:23:59;100768.88;;;19.19;55.41
74680;BME280;63211;48.548;2.704;2023-11-19T04:26:26;100758.31;;;19.23;55.29
74680;BME280;63211;48.548;2.704;2023-11-19T04:28:54;100761.44;;;19.27;55.32
74680;BME280;63211;48.548;2.704;2023-11-19T04:31:20;100765.84;;;19.28;55.65
74680;BME280;63211;48.548;2.704;2023-11-19T04:33:47;100759.53;;;19.27;55.82
74680;BME280;63211;48.548;2.704;2023-11-19T04:36:18;100749.69;;;19.26;55.82
74680;BME280;63211;48.548;2.704;2023-11-19T04:38:45;100762.66;;;19.31;55.62
74680;BME280;63211;48.548;2.704;2023-11-19T04:41:11;100763.00;;;19.34;55.87
74680;BME280;63211;48.548;2.704;2023-11-19T04:43:39;100764.88;;;19.34;55.41
74680;BME280;63211;48.548;2.704;2023-11-19T04:46:09;100770.13;;;19.35;55.33
74680;BME280;63211;48.548;2.704;2023-11-19T04:48:36;100768.72;;;19.33;55.13
74680;BME280;63211;48.548;2.704;2023-11-19T04:51:04;100761.44;;;19.27;55.48
74680;BME280;63211;48.548;2.704;2023-11-19T04:53:31;100773.41;;;19.26;55.95
74680;BME280;63211;48.548;2.704;2023-11-19T04:55:58;100770.09;;;19.23;55.93
74680;BME280;63211;48.548;2.704;2023-11-19T04:58:24;100780.16;;;19.23;55.86
74680;BME280;63211;48.548;2.704;2023-11-19T05:00:51;100782.28;;;19.21;55.87
74680;BME280;63211;48.548;2.704;2023-11-19T05:03:19;100773.50;;;19.19;55.75
74680;BME280;63211;48.548;2.704;2023-11-19T05:05:46;100772.66;;;19.18;55.81
74680;BME280;63211;48.548;2.704;2023-11-19T05:08:12;100756.06;;;19.02;55.81
74680;BME280;63211;48.548;2.704;2023-11-19T05:10:39;100773.09;;;19.15;55.67
74680;BME280;63211;48.548;2.704;2023-11-19T05:13:06;100756.84;;;19.09;55.96
74680;BME280;63211;48.548;2.704;2023-11-19T05:15:33;100763.47;;;19.13;55.84
74680;BME280;63211;48.548;2.704;2023-11-19T05:17:59;100751.84;;;19.06;55.98
74680;BME280;63211;48.548;2.704;2023-11-19T05:20:27;100774.66;;;19.11;56.03
74680;BME280;63211;48.548;2.704;2023-11-19T05:22:54;100777.59;;;19.10;55.83
74680;BME280;63211;48.548;2.704;2023-11-19T05:25:20;100783.06;;;19.10;55.96
74680;BME280;63211;48.548;2.704;2023-11-19T05:27:47;100784.97;;;19.09;55.91
74680;BME280;63211;48.548;2.704;2023-11-19T05:30:13;100781.63;;;19.07;55.88
74680;BME280;63211;48.548;2.704;2023-11-19T05:32:40;100781.63;;;19.07;55.99
74680;BME280;63211;48.548;2.704;2023-11-19T05:35:07;100790.03;;;19.06;55.83
74680;BME280;63211;48.548;2.704;2023-11-19T05:37:36;100786.69;;;19.04;55.74
74680;BME280;63211;48.548;2.704;2023-11-19T05:40:03;100790.50;;;19.03;55.85
74680;BME280;63211;48.548;2.704;2023-11-19T05:42:39;100789.03;;;19.00;55.77
74680;BME280;63211;48.548;2.704;2023-11-19T05:45:06;100800.78;;;19.01;55.74
74680;BME280;63211;48.548;2.704;2023-11-19T05:47:34;100801.47;;;18.96;55.61
74680;BME280;63211;48.548;2.704;2023-11-19T05:50:00;100804.81;;;18.98;56.04
74680;BME280;63211;48.548;2.704;2023-11-19T05:52:27;100791.38;;;18.97;55.95
74680;BME280;63211;48.548;2.704;2023-11-19T05:54:59;100795.41;;;18.94;55.99
74680;BME280;63211;48.548;2.704;2023-11-19T05:57:29;100791.84;;;18.94;56.30
74680;BME280;63211;48.548;2.704;2023-11-19T05:59:55;100805.69;;;18.92;56.12
74680;BME280;63211;48.548;2.704;2023-11-19T06:02:22;100817.44;;;18.93;56.16
74680;BME280;63211;48.548;2.704;2023-11-19T06:04:48;100816.25;;;18.88;56.04
74680;BME280;63211;48.548;2.704;2023-11-19T06:07:15;100825.81;;;18.98;56.01
74680;BME280;63211;48.548;2.704;2023-11-19T06:09:41;100766.44;;;18.75;55.66
74680;BME280;63211;48.548;2.704;2023-11-19T06:12:09;100822.00;;;19.17;55.62
74680;BME280;63211;48.548;2.704;2023-11-19T06:14:36;100832.25;;;19.21;55.71
74680;BME280;63211;48.548;2.704;2023-11-19T06:17:01;100830.13;;;19.23;55.98
74680;BME280;63211;48.548;2.704;2023-11-19T06:19:30;100816.31;;;19.18;56.17
74680;BME280;63211;48.548;2.704;2023-11-19T06:21:56;100824.22;;;19.27;56.14
74680;BME280;63211;48.548;2.704;2023-11-19T06:24:23;100833.25;;;19.27;55.89
74680;BME280;63211;48.548;2.704;2023-11-19T06:26:49;100796.78;;;19.03;56.04
74680;BME280;63211;48.548;2.704;2023-11-19T06:29:17;100841.59;;;19.32;55.78
74680;BME280;63211;48.548;2.704;2023-11-19T06:31:45;100844.91;;;19.34;55.94
74680;BME280;63211;48.548;2.704;2023-11-19T06:34:14;100836.59;;;19.29;55.90
74680;BME280;63211;48.548;2.704;2023-11-19T06:36:40;100850.84;;;19.31;55.73
74680;BME280;63211;48.548;2.704;2023-11-19T06:39:08;100834.59;;;19.18;55.77
74680;BME280;63211;48.548;2.704;2023-11-19T06:41:35;100849.63;;;19.27;55.72
74680;BME280;63211;48.548;2.704;2023-11-19T06:44:03;100852.81;;;19.24;56.06
74680;BME280;63211;48.548;2.704;2023-11-19T06:46:31;100839.81;;;19.19;56.05
74680;BME280;63211;48.548;2.704;2023-11-19T06:48:57;100834.81;;;19.16;56.10
74680;BME280;63211;48.548;2.704;2023-11-19T06:51:25;100835.22;;;19.20;55.95
74680;BME280;63211;48.548;2.704;2023-11-19T06:53:52;100831.88;;;19.18;55.82
74680;BME280;63211;48.548;2.704;2023-11-19T06:56:20;100842.19;;;19.16;55.91
74680;BME280;63211;48.548;2.704;2023-11-19T06:58:47;100843.22;;;19.15;55.80
74680;BME280;63211;48.548;2.704;2023-11-19T07:01:14;100849.53;;;19.15;55.98
74680;BME280;63211;48.548;2.704;2023-11-19T07:03:42;100844.28;;;19.14;55.98
74680;BME280;63211;48.548;2.704;2023-11-19T07:06:10;100852.72;;;19.12;55.88
74680;BME280;63211;48.548;2.704;2023-11-19T07:08:38;100865.53;;;19.12;55.90
74680;BME280;63211;48.548;2.704;2023-11-19T07:11:04;100860.31;;;19.10;55.97
74680;BME280;63211;48.548;2.704;2023-11-19T07:13:31;100866.00;;;19.09;55.71
74680;BME280;63211;48.548;2.704;2023-11-19T07:15:58;100871.69;;;19.07;55.85
74680;BME280;63211;48.548;2.704;2023-11-19T07:18:25;100886.16;;;19.08;55.94
74680;BME280;63211;48.548;2.704;2023-11-19T07:20:53;100878.19;;;19.06;55.84
74680;BME280;63211;48.548;2.704;2023-11-19T07:23:19;100872.13;;;19.04;55.92
74680;BME280;63211;48.548;2.704;2023-11-19T07:25:46;100882.19;;;19.04;55.95
74680;BME280;63211;48.548;2.704;2023-11-19T07:28:15;100880.75;;;19.01;56.11
74680;BME280;63211;48.548;2.704;2023-11-19T07:30:42;100881.59;;;19.02;55.90
74680;BME280;63211;48.548;2.704;2023-11-19T07:33:09;100886.22;;;19.01;56.00
74680;BME280;63211;48.548;2.704;2023-11-19T07:35:35;100893.78;;;18.99;56.15
74680;BME280;63211;48.548;2.704;2023-11-19T07:38:03;100895.91;;;18.97;55.79
74680;BME280;63211;48.548;2.704;2023-11-19T07:40:30;100892.34;;;18.97;56.17
74680;BME280;63211;48.548;2.704;2023-11-19T07:42:57;100904.31;;;18.96;56.10
74680;BME280;63211;48.548;2.704;2023-11-19T07:45:23;100903.47;;;18.95;56.04
74680;BME280;63211;48.548;2.704;2023-11-19T07:47:50;100888.38;;;18.93;56.25
74680;BME280;63211;48.548;2.704;2023-11-19T07:50:17;100886.97;;;18.90;56.08
74680;BME280;63211;48.548;2.704;2023-11-19T07:52:45;100897.19;;;18.95;56.25
74680;BME280;63211;48.548;2.704;2023-11-19T07:55:13;100894.63;;;19.00;55.87
74680;BME280;63211;48.548;2.704;2023-11-19T07:57:39;100888.06;;;19.07;55.86
74680;BME280;63211;48.548;2.704;2023-11-19T08:00:07;100900.53;;;19.15;55.58
74680;BME280;63211;48.548;2.704;2023-11-19T08:02:37;100908.69;;;19.21;55.54
74680;BME280;63211;48.548;2.704;2023-11-19T08:05:04;100909.28;;;19.23;55.73
74680;BME280;63211;48.548;2.704;2023-11-19T08:07:31;100896.25;;;19.26;55.90
74680;BME280;63211;48.548;2.704;2023-11-19T08:09:57;100910.72;;;19.26;55.62
74680;BME280;63211;48.548;2.704;2023-11-19T08:12:26;100905.88;;;19.28;55.73
74680;BME280;63211;48.548;2.704;2023-11-19T08:14:53;100897.47;;;19.30;55.49
74680;BME280;63211;48.548;2.704;2023-11-19T08:17:19;100909.59;;;19.34;55.45
74680;BME280;63211;48.548;2.704;2023-11-19T08:19:48;100906.03;;;19.33;55.22
74680;BME280;63211;48.548;2.704;2023-11-19T08:22:14;100899.97;;;19.31;55.09
74680;BME280;63211;48.548;2.704;2023-11-19T08:24:41;100897.81;;;19.33;55.54
74680;BME280;63211;48.548;2.704;2023-11-19T08:27:08;100888.44;;;19.29;55.81
74680;BME280;63211;48.548;2.704;2023-11-19T08:29:36;100897.47;;;19.30;55.92
74680;BME280;63211;48.548;2.704;2023-11-19T08:32:03;100906.28;;;19.32;55.70
74680;BME280;63211;48.548;2.704;2023-11-19T08:34:30;100887.50;;;19.17;55.95
74680;BME280;63211;48.548;2.704;2023-11-19T08:36:56;100904.22;;;19.27;55.98
74680;BME280;63211;48.548;2.704;2023-11-19T08:39:23;100902.78;;;19.25;56.34
74680;BME280;63211;48.548;2.704;2023-11-19T08:41:50;100909.28;;;19.23;56.09
74680;BME280;63211;48.548;2.704;2023-11-19T08:44:16;100906.84;;;19.34;56.40
74680;BME280;63211;48.548;2.704;2023-11-19T08:46:49;100895.81;;;19.47;59.32
74680;BME280;63211;48.548;2.704;2023-11-19T08:49:16;100901.72;;;19.44;59.38
74680;BME280;63211;48.548;2.704;2023-11-19T08:51:42;100898.22;;;19.37;59.87
74680;BME280;63211;48.548;2.704;2023-11-19T08:54:09;100909.22;;;19.48;59.26
74680;BME280;63211;48.548;2.704;2023-11-19T08:56:36;100908.31;;;19.54;59.25
74680;BME280;63211;48.548;2.704;2023-11-19T08:59:04;100921.16;;;19.54;58.85
74680;BME280;63211;48.548;2.704;2023-11-19T09:01:31;100909.69;;;19.64;58.58
74680;BME280;63211;48.548;2.704;2023-11-19T09:03:59;100909.94;;;19.62;58.42
74680;BME280;63211;48.548;2.704;2023-11-19T09:06:25;100907.75;;;19.52;58.21
74680;BME280;63211;48.548;2.704;2023-11-19T09:08:52;100921.81;;;19.49;58.32
74680;BME280;63211;48.548;2.704;2023-11-19T09:11:23;100937.22;;;19.44;58.65
74680;BME280;63211;48.548;2.704;2023-11-19T09:13:50;100934.94;;;19.41;58.74
74680;BME280;63211;48.548;2.704;2023-11-19T09:16:16;100918.16;;;19.37;58.56
74680;BME280;63211;48.548;2.704;2023-11-19T09:18:43;100928.19;;;19.43;58.74
74680;BME280;63211;48.548;2.704;2023-11-19T09:21:11;100918.88;;;19.33;58.64
74680;BME280;63211;48.548;2.704;2023-11-19T09:23:38;100929.91;;;19.38;58.81
74680;BME280;63211;48.548;2.704;2023-11-19T09:26:08;100919.66;;;19.33;58.95
74680;BME280;63211;48.548;2.704;2023-11-19T09:28:36;100928.03;;;19.38;58.75
74680;BME280;63211;48.548;2.704;2023-11-19T09:31:02;100930.38;;;19.35;58.70
74680;BME280;63211;48.548;2.704;2023-11-19T09:33:30;100933.25;;;19.40;58.80
74680;BME280;63211;48.548;2.704;2023-11-19T09:35:56;100931.91;;;19.49;58.56
74680;BME280;63211;48.548;2.704;2023-11-19T09:38:24;100921.06;;;19.42;58.62
74680;BME280;63211;48.548;2.704;2023-11-19T09:40:50;100925.19;;;19.51;57.79
74680;BME280;63211;48.548;2.704;2023-11-19T09:43:17;100930.94;;;19.62;57.63
74680;BME280;63211;48.548;2.704;2023-11-19T09:45:48;100928.38;;;19.67;57.25
74680;BME280;63211;48.548;2.704;2023-11-19T09:48:16;100930.94;;;19.62;58.48
74680;BME280;63211;48.548;2.704;2023-11-19T09:50:44;100940.97;;;19.68;57.63
74680;BME280;63211;48.548;2.704;2023-11-19T09:53:10;100940.34;;;19.66;58.78
74680;BME280;63211;48.548;2.704;2023-11-19T09:55:38;100917.75;;;19.59;62.90
74680;BME280;63211;48.548;2.704;2023-11-19T09:58:06;100946.59;;;19.73;64.18
74680;BME280;63211;48.548;2.704;2023-11-19T10:00:33;100934.50;;;19.80;66.34
74680;BME280;63211;48.548;2.704;2023-11-19T10:03:00;100933.66;;;19.80;65.94
74680;BME280;63211;48.548;2.704;2023-11-19T10:05:27;100934.81;;;19.90;63.24
74680;BME280;63211;48.548;2.704;2023-11-19T10:07:53;100945.63;;;19.97;65.51
74680;BME280;63211;48.548;2.704;2023-11-19T10:10:20;100944.34;;;20.00;67.78
74680;BME280;63211;48.548;2.704;2023-11-19T10:12:50;100919.69;;;19.88;68.98
74680;BME280;63211;48.548;2.704;2023-11-19T10:15:21;100951.38;;;20.07;70.39
74680;BME280;63211;48.548;2.704;2023-11-19T10:17:49;100956.06;;;20.18;69.79
74680;BME280;63211;48.548;2.704;2023-11-19T10:20:16;100950.00;;;20.16;69.30
74680;BME280;63211;48.548;2.704;2023-11-19T10:22:42;100940.38;;;20.14;67.81
74680;BME280;63211;48.548;2.704;2023-11-19T10:25:21;100940.25;;;20.20;66.68
74680;BME280;63211;48.548;2.704;2023-11-19T10:27:50;100934.56;;;20.22;63.29
74680;BME280;63211;48.548;2.704;2023-11-19T10:30:18;100933.13;;;20.19;62.25
74680;BME280;63211;48.548;2.704;2023-11-19T10:32:44;100942.03;;;20.15;61.76
74680;BME280;63211;48.548;2.704;2023-11-19T10:35:11;100949.41;;;20.14;61.72
74680;BME280;63211;48.548;2.704;2023-11-19T10:37:38;100944.78;;;20.15;61.26
74680;BME280;63211;48.548;2.704;2023-11-19T10:40:07;100946.69;;;20.14;61.08
74680;BME280;63211;48.548;2.704;2023-11-19T10:42:35;100952.25;;;20.19;60.65
74680;BME280;63211;48.548;2.704;2023-11-19T10:45:04;100946.78;;;20.19;60.44
74680;BME280;63211;48.548;2.704;2023-11-19T10:47:32;100956.44;;;20.22;60.47
74680;BME280;63211;48.548;2.704;2023-11-19T10:50:01;100954.38;;;20.17;60.38
74680;BME280;63211;48.548;2.704;2023-11-19T10:52:27;100958.69;;;20.13;60.40
74680;BME280;63211;48.548;2.704;2023-11-19T10:54:56;100954.28;;;20.12;60.33
74680;BME280;63211;48.548;2.704;2023-11-19T10:57:26;100955.56;;;20.10;60.00
74680;BME280;63211;48.548;2.704;2023-11-19T11:00:01;100950.56;;;20.07;59.93
74680;BME280;63211;48.548;2.704;2023-11-19T11:02:29;100946.38;;;20.04;59.95
74680;BME280;63211;48.548;2.704;2023-11-19T11:05:00;100937.56;;;20.02;60.00
74680;BME280;63211;48.548;2.704;2023-11-19T11:07:29;100932.94;;;20.03;59.83
74680;BME280;63211;48.548;2.704;2023-11-19T11:09:57;100931.03;;;20.03;59.55
74680;BME280;63211;48.548;2.704;2023-11-19T11:12:25;100929.97;;;20.04;59.51
74680;BME280;63211;48.548;2.704;2023-11-19T11:14:53;100924.50;;;20.04;59.40
74680;BME280;63211;48.548;2.704;2023-11-19T11:17:24;100910.25;;;20.02;59.40
74680;BME280;63211;48.548;2.704;2023-11-19T11:19:55;100906.44;;;20.03;59.21
74680;BME280;63211;48.548;2.704;2023-11-19T11:22:22;100906.44;;;20.03;59.21
74680;BME280;63211;48.548;2.704;2023-11-19T11:25:13;100891.94;;;20.03;59.02
74680;BME280;63211;48.548;2.704;2023-11-19T11:28:11;100897.56;;;20.08;58.77
74680;BME280;63211;48.548;2.704;2023-11-19T11:30:54;100898.00;;;20.05;58.80
74680;BME280;63211;48.548;2.704;2023-11-19T11:33:34;100898.84;;;20.05;58.83
74680;BME280;63211;48.548;2.704;2023-11-19T11:36:10;100892.41;;;20.00;58.50
74680;BME280;63211;48.548;2.704;2023-11-19T11:38:40;100899.78;;;19.99;58.48
74680;BME280;63211;48.548;2.704;2023-11-19T11:41:21;100897.03;;;19.99;58.46
74680;BME280;63211;48.548;2.704;2023-11-19T11:43:48;100895.13;;;20.00;58.61
74680;BME280;63211;48.548;2.704;2023-11-19T11:49:25;100899.03;;;19.92;58.59
74680;BME280;63211;48.548;2.704;2023-11-19T11:52:00;100895.94;;;19.88;58.71
74680;BME280;63211;48.548;2.704;2023-11-19T11:54:28;100896.78;;;19.89;58.68
74680;BME280;63211;48.548;2.704;2023-11-19T11:57:11;100895.94;;;19.88;58.74
74680;BME280;63211;48.548;2.704;2023-11-19T11:59:46;100896.78;;;19.89;58.42
74680;BME280;63211;48.548;2.704;2023-11-19T12:02:14;100899.50;;;19.89;58.63
74680;BME280;63211;48.548;2.704;2023-11-19T12:04:42;100894.03;;;19.89;58.53
74680;BME280;63211;48.548;2.704;2023-11-19T12:07:13;100896.53;;;19.90;58.38
74680;BME280;63211;48.548;2.704;2023-11-19T12:09:40;100890.00;;;19.92;58.28
74680;BME280;63211;48.548;2.704;2023-11-19T12:12:12;100885.63;;;19.90;58.33
74680;BME280;63211;48.548;2.704;2023-11-19T12:15:00;100885.84;;;19.89;58.23
74680;BME280;63211;48.548;2.704;2023-11-19T12:17:43;100890.84;;;19.92;58.23
74680;BME280;63211;48.548;2.704;2023-11-19T12:20:15;100886.69;;;19.89;58.28
74680;BME280;63211;48.548;2.704;2023-11-19T12:22:44;100890.38;;;19.95;58.17
74680;BME280;63211;48.548;2.704;2023-11-19T12:25:12;100888.19;;;19.85;58.60
74680;BME280;63211;48.548;2.704;2023-11-19T12:27:39;100893.28;;;19.82;57.51
74680;BME280;63211;48.548;2.704;2023-11-19T12:30:07;100881.03;;;19.73;56.37
74680;BME280;63211;48.548;2.704;2023-11-19T12:32:40;100893.63;;;19.74;56.55
74680;BME280;63211;48.548;2.704;2023-11-19T12:35:08;100886.50;;;19.73;55.99
74680;BME280;63211;48.548;2.704;2023-11-19T12:37:40;100883.00;;;19.66;55.36
74680;BME280;63211;48.548;2.704;2023-11-19T12:40:13;100885.72;;;19.66;54.95
74680;BME280;63211;48.548;2.704;2023-11-19T12:42:40;100884.88;;;19.65;54.66
74680;BME280;63211;48.548;2.704;2023-11-19T12:45:07;100877.31;;;19.67;54.97
74680;BME280;63211;48.548;2.704;2023-11-19T12:47:35;100874.84;;;19.77;54.97
74680;BME280;63211;48.548;2.704;2023-11-19T12:50:02;100874.50;;;19.74;55.80
74680;BME280;63211;48.548;2.704;2023-11-19T12:52:29;100869.59;;;19.76;55.91
74680;BME280;63211;48.548;2.704;2023-11-19T12:54:55;100865.59;;;19.78;56.01
74680;BME280;63211;48.548;2.704;2023-11-19T12:57:37;100864.63;;;19.73;57.80